Tamuín, SLP, Mexico
Current Conditions -  °F | °C
As of 5:42 AM on Friday 28 Nov 2014 (Local Time) from MMTM Reporting Station
Scattered Clouds Scattered Clouds  
Wind Chill: 59°   Ceiling: Unl
Heat Index: 59°   Visibility: 10mi
Dew Point: 55°   Wind: 8mph
Humidity: 88%   Direction: 280°W
Pressure: 30.32"   Gusts: NA
Location:  22.00694°N, 98.78861°W
Report Text: MMTM 281142Z 28007KT 10SM SCT065 15/13 A3032 RMK SLP253 5//// 900 8/030
Loading
Personal Weather Stations






























Interactive Weather Map New forecast layout! Learn more

10-Day Weather Forecast

Advertisements
Track Severe Weather on mobile